createdAt,value
2018-11-12T00:25:01.107Z,27.1
2018-11-12T00:25:50.047Z,27.6
2018-11-12T00:26:40.025Z,27.9
2018-11-12T00:27:30.539Z,28.2
2018-11-12T00:28:19.746Z,28.5
2018-11-12T00:29:11.734Z,28.8
2018-11-12T00:30:02.010Z,28.9
2018-11-12T00:30:50.961Z,29.1
2018-11-12T00:31:41.349Z,29.3
2018-11-12T00:32:31.048Z,29.4
2018-11-12T00:33:20.363Z,29.6
2018-11-12T00:34:09.568Z,29.8
2018-11-12T00:35:00.601Z,29.9
2018-11-12T00:35:49.491Z,30
2018-11-12T00:36:39.347Z,30.1
2018-11-12T00:37:29.620Z,30.3
2018-11-12T00:38:19.750Z,30.4
2018-11-12T00:39:10.824Z,30.4
2018-11-12T00:40:03.076Z,30.5
2018-11-12T00:40:51.228Z,30.6
2018-11-12T00:41:40.978Z,30.8
2018-11-12T00:42:31.341Z,30.8
2018-11-12T00:43:22.211Z,30.9
2018-11-12T00:44:11.753Z,30.9
2018-11-12T00:45:01.106Z,31
2018-11-12T00:45:52.341Z,31.1
2018-11-12T00:46:41.576Z,31.1
2018-11-12T00:47:32.268Z,31.1
2018-11-12T00:48:20.868Z,31.2
2018-11-12T00:49:12.160Z,31.3
2018-11-12T00:50:02.141Z,31.3
2018-11-12T00:50:51.575Z,31.3
2018-11-12T00:51:41.219Z,31.3
2018-11-12T00:52:30.975Z,31.2
2018-11-12T00:53:22.060Z,31
2018-11-12T00:54:10.688Z,30.9
2018-11-12T00:55:02.932Z,30.8
2018-11-12T00:55:52.850Z,30.6
2018-11-12T00:56:41.590Z,30.5
2018-11-12T00:57:32.032Z,30.4
2018-11-12T00:58:22.482Z,30.3
2018-11-12T00:59:11.547Z,30.1
2018-11-12T01:00:02.010Z,30
2018-11-12T01:00:55.460Z,29.1
2018-11-12T01:01:41.462Z,27.9
2018-11-12T01:02:32.369Z,27.4
2018-11-12T01:03:21.307Z,27.1
2018-11-12T01:04:14.447Z,26.9
2018-11-12T01:05:02.455Z,26.8
2018-11-12T01:05:53.757Z,26.6
2018-11-12T01:06:43.082Z,26.5
2018-11-12T01:07:33.516Z,26.4
2018-11-12T01:08:23.457Z,26.3
2018-11-12T01:09:12.353Z,26.2
2018-11-12T01:10:03.010Z,26.1
2018-11-12T01:10:52.860Z,25.8
2018-11-12T01:11:42.695Z,25.4
2018-11-12T01:12:32.497Z,25.6
2018-11-12T01:13:22.329Z,26.1
2018-11-12T01:14:13.059Z,26.5
2018-11-12T01:15:02.859Z,26.9
2018-11-12T01:15:53.473Z,27.3
2018-11-12T01:16:43.839Z,27.5
2018-11-12T01:18:22.644Z,28.1
2018-11-12T01:19:12.842Z,28.4
2018-11-12T01:20:04.235Z,28.6
2018-11-12T01:20:54.510Z,28.8
2018-11-12T01:21:44.058Z,29
2018-11-12T01:22:33.381Z,29.2
2018-11-12T01:23:23.191Z,29.3
2018-11-12T01:24:12.678Z,29.4
2018-11-12T01:25:04.083Z,29.6
2018-11-12T01:25:54.710Z,29.7
2018-11-12T01:26:44.581Z,29.8
2018-11-12T01:27:34.129Z,29.9
2018-11-12T01:28:23.356Z,30
2018-11-12T01:29:14.838Z,30.1
2018-11-12T01:30:04.088Z,30
2018-11-12T01:30:55.506Z,29.6
2018-11-12T01:31:45.251Z,29.1
2018-11-12T01:32:34.607Z,28.3
2018-11-12T01:33:25.301Z,27.5
2018-11-12T01:34:15.575Z,26.7
2018-11-12T01:35:05.207Z,25.8
2018-11-12T01:35:54.808Z,24.9
2018-11-12T01:36:45.613Z,24.1
2018-11-12T01:37:35.437Z,24
2018-11-12T01:38:26.195Z,24.3
2018-11-12T01:39:15.903Z,25.3
2018-11-12T01:40:05.115Z,26.2
2018-11-12T01:40:55.235Z,26.7
2018-11-12T01:41:46.863Z,27.1
2018-11-12T01:42:35.412Z,27.4
2018-11-12T01:43:25.388Z,27.7
2018-11-12T01:44:16.325Z,28.1
2018-11-12T01:45:05.402Z,28.4
2018-11-12T01:45:55.764Z,28.8
2018-11-12T01:46:45.382Z,29
2018-11-12T01:47:36.637Z,29.3
2018-11-12T01:48:26.359Z,29.5
2018-11-12T01:49:16.310Z,29.7
2018-11-12T01:50:05.740Z,29.9
2018-11-12T01:50:56.120Z,30.1
2018-11-12T01:51:46.815Z,30.3
2018-11-12T01:52:36.787Z,30.4
2018-11-12T01:53:25.999Z,30.5
2018-11-12T01:54:16.000Z,30.7
2018-11-12T01:55:06.775Z,30.8
2018-11-12T01:55:57.303Z,30.9
2018-11-12T01:56:46.101Z,31
2018-11-12T01:57:37.109Z,31.1
2018-11-12T01:58:27.211Z,31.2
2018-11-12T01:59:16.001Z,31.3
2018-11-12T02:00:06.671Z,31.3
2018-11-12T02:00:57.684Z,31.1
2018-11-12T02:01:48.719Z,31
2018-11-12T02:02:36.404Z,30.9
2018-11-12T02:03:27.576Z,30.8
2018-11-12T02:04:17.487Z,30.6
2018-11-12T02:05:08.152Z,30.5
2018-11-12T02:05:57.931Z,30.4
2018-11-12T02:06:47.791Z,30.3
2018-11-12T02:07:37.576Z,30.1
2018-11-12T02:08:27.389Z,30
2018-11-12T02:09:18.149Z,29.6
2018-11-12T02:10:07.659Z,28.1
2018-11-12T02:10:58.079Z,27.4
2018-11-12T02:11:47.260Z,27.1
2018-11-12T02:12:37.163Z,26.8
2018-11-12T02:13:28.388Z,26.7
2018-11-12T02:14:16.965Z,26.5
2018-11-12T02:15:08.158Z,26.4
2018-11-12T02:15:57.186Z,26.3
2018-11-12T02:16:48.705Z,26.2
2018-11-12T02:17:38.133Z,26.1
2018-11-12T02:18:26.323Z,26
2018-11-12T02:19:19.028Z,25.6
2018-11-12T02:20:06.808Z,25.5
2018-11-12T02:20:58.336Z,26.1
2018-11-12T02:21:49.028Z,26.4
2018-11-12T02:22:39.054Z,26.9
2018-11-12T02:23:27.894Z,27.3
2018-11-12T02:24:17.982Z,27.6
2018-11-12T02:25:08.531Z,27.9
2018-11-12T02:25:58.772Z,28.3
2018-11-12T02:26:48.362Z,28.6
2018-11-12T02:27:39.708Z,28.8
2018-11-12T02:28:29.146Z,29.1
2018-11-12T02:29:19.020Z,29.3
2018-11-12T02:30:10.152Z,29.5
2018-11-12T02:30:58.951Z,29.7
2018-11-12T02:31:49.460Z,29.8
2018-11-12T02:32:39.382Z,30
2018-11-12T02:33:31.958Z,30.1
2018-11-12T02:34:18.595Z,30.3
2018-11-12T02:35:09.670Z,30.4
2018-11-12T02:35:59.465Z,30.5
2018-11-12T02:36:50.039Z,30.6
2018-11-12T02:37:40.886Z,30.8
2018-11-12T02:38:29.867Z,30.8
2018-11-12T02:39:20.272Z,30.9
2018-11-12T02:40:09.414Z,31
2018-11-12T02:41:00.150Z,31.1
2018-11-12T02:41:50.407Z,31.2
2018-11-12T02:42:39.886Z,31.3
2018-11-12T02:43:30.034Z,31.3
2018-11-12T02:44:19.751Z,31.3
2018-11-12T02:45:10.554Z,31.1
2018-11-12T02:45:59.313Z,31
2018-11-12T02:46:50.161Z,30.9
2018-11-12T02:47:40.749Z,30.8
2018-11-12T02:48:30.356Z,30.6
2018-11-12T02:49:21.379Z,30.4
2018-11-12T02:50:09.983Z,30.4
2018-11-12T02:51:00.272Z,30.3
2018-11-12T02:51:51.288Z,30.1
2018-11-12T02:52:40.813Z,29.9
2018-11-12T02:53:30.208Z,28.5
2018-11-12T02:54:20.542Z,27.7
2018-11-12T02:55:11.076Z,27.3
2018-11-12T02:56:00.326Z,27
2018-11-12T02:56:49.917Z,26.8
2018-11-12T02:57:42.206Z,26.7
2018-11-12T02:58:31.533Z,26.6
2018-11-12T02:59:21.147Z,26.4
2018-11-12T03:00:12.273Z,26.4
2018-11-12T03:01:01.006Z,26.3
2018-11-12T03:01:52.019Z,26.2
2018-11-12T03:02:41.593Z,26.1
2018-11-12T03:03:32.053Z,25.6
2018-11-12T03:04:20.225Z,25.6
2018-11-12T03:05:12.310Z,26.1
2018-11-12T03:06:01.065Z,26.4
2018-11-12T03:06:51.948Z,26.8
2018-11-12T03:07:42.384Z,27.3
2018-11-12T03:08:32.595Z,27.6
2018-11-12T03:09:22.295Z,27.9
2018-11-12T03:10:12.407Z,28.3
2018-11-12T03:11:01.385Z,28.6
2018-11-12T03:11:52.248Z,28.8
2018-11-12T03:12:41.875Z,29.1
2018-11-12T03:13:31.072Z,29.3
2018-11-12T03:14:22.094Z,29.4
2018-11-12T03:15:11.963Z,29.6
2018-11-12T03:16:03.147Z,29.8
2018-11-12T03:16:52.102Z,29.9
2018-11-12T03:17:42.404Z,30.1
2018-11-12T03:18:33.050Z,30.1
2018-11-12T03:19:22.247Z,30.3
2018-11-12T03:20:11.435Z,30.4
2018-11-12T03:21:03.302Z,30.4
2018-11-12T03:21:52.654Z,30.6
2018-11-12T03:22:43.007Z,30.6
2018-11-12T03:23:32.884Z,30.8
2018-11-12T03:24:22.052Z,30.8
2018-11-12T03:25:13.194Z,30.9
2018-11-12T03:26:03.104Z,30.9
2018-11-12T03:26:53.477Z,30.9
2018-11-12T03:27:45.385Z,31
2018-11-12T03:28:33.990Z,31.1
2018-11-12T03:29:23.441Z,31.1
2018-11-12T03:30:13.655Z,31.2
2018-11-12T03:31:02.964Z,31.3
2018-11-12T03:31:53.514Z,31.3
2018-11-12T03:32:44.335Z,31.3
2018-11-12T03:33:33.654Z,31.2
2018-11-12T03:34:24.456Z,31.1
2018-11-12T03:35:14.437Z,30.9
2018-11-12T03:36:03.818Z,30.8
2018-11-12T03:36:53.601Z,30.7
2018-11-12T03:37:43.055Z,30.6
2018-11-12T03:38:32.936Z,30.4
2018-11-12T03:39:25.203Z,30.3
2018-11-12T03:40:13.624Z,30.2
2018-11-12T03:41:04.078Z,30.1
2018-11-12T03:41:53.948Z,29.9
2018-11-12T03:42:43.853Z,29.8
2018-11-12T03:43:34.116Z,28.3
2018-11-12T03:44:24.663Z,27.6
2018-11-12T03:45:14.138Z,27.1
2018-11-12T03:46:04.770Z,26.9
2018-11-12T03:46:54.653Z,26.8
2018-11-12T03:47:45.349Z,26.6
2018-11-12T03:48:36.023Z,26.5
2018-11-12T03:49:24.143Z,26.4
2018-11-12T03:50:15.133Z,26.3
2018-11-12T03:51:05.558Z,26.2
2018-11-12T03:51:55.360Z,26.1
2018-11-12T03:52:44.717Z,25.9
2018-11-12T03:53:35.140Z,25.6
2018-11-12T03:54:25.088Z,25.8
2018-11-12T03:55:15.657Z,26.3
2018-11-12T03:56:05.414Z,26.6
2018-11-12T03:56:55.764Z,27
2018-11-12T03:57:44.907Z,27.4
2018-11-12T03:58:35.125Z,27.6
2018-11-12T03:59:25.565Z,27.9
2018-11-12T04:00:17.890Z,28.3
2018-11-12T04:01:04.210Z,28.5
2018-11-12T04:01:55.544Z,28.8
2018-11-12T04:02:46.071Z,28.9
2018-11-12T04:03:35.725Z,29.1
2018-11-12T04:04:26.947Z,29.3
2018-11-12T04:05:16.588Z,29.4
2018-11-12T04:06:05.613Z,29.6
2018-11-12T04:06:57.064Z,29.6
2018-11-12T04:07:47.142Z,29.8
2018-11-12T04:08:36.802Z,29.9
2018-11-12T04:09:26.633Z,29.9
2018-11-12T04:10:16.891Z,30
2018-11-12T04:11:05.794Z,30.1
2018-11-12T04:11:55.989Z,30.2
2018-11-12T04:12:46.663Z,30.3
2018-11-12T04:13:36.707Z,30.3
2018-11-12T04:14:26.726Z,30.4
2018-11-12T04:15:17.041Z,30.4
2018-11-12T04:16:07.751Z,30.4
2018-11-12T04:16:56.894Z,30.5
2018-11-12T04:17:47.669Z,30.6
2018-11-12T04:18:37.021Z,30.6
2018-11-12T04:19:26.023Z,30.6
2018-11-12T04:20:16.844Z,30.6
2018-11-12T04:21:06.961Z,30.6
2018-11-12T04:21:57.417Z,30.4
2018-11-12T04:22:46.889Z,29.9
2018-11-12T04:23:37.111Z,29.3
2018-11-12T04:24:27.110Z,28.4
2018-11-12T04:25:18.449Z,27.7
2018-11-12T04:26:07.037Z,26.8
2018-11-12T04:26:57.703Z,26
2018-11-12T04:27:47.450Z,25
2018-11-12T04:28:37.978Z,24.4
2018-11-12T04:29:27.171Z,24.5
2018-11-12T04:30:18.135Z,25
2018-11-12T04:31:07.878Z,26.1
2018-11-12T04:31:58.336Z,26.8
2018-11-12T04:32:48.436Z,27.2
2018-11-12T04:33:38.583Z,27.5
2018-11-12T04:35:18.181Z,28.2
2018-11-12T04:36:07.645Z,28.5
2018-11-12T04:54:16.373Z,30.8
2018-11-12T04:55:08.239Z,30.6
2018-11-12T04:55:57.481Z,30.5
2018-11-12T04:56:47.534Z,30.4
2018-11-12T04:57:37.131Z,30.3
2018-11-12T04:58:26.749Z,30.1
2018-11-12T04:59:18.477Z,30
2018-11-12T05:00:07.811Z,28.8
2018-11-12T05:00:57.369Z,27.9
2018-11-12T05:01:48.387Z,27.4
2018-11-12T05:02:37.517Z,27.1
2018-11-12T05:03:27.474Z,26.9
2018-11-12T05:04:18.039Z,26.8
2018-11-12T05:05:08.326Z,26.6
2018-11-12T05:05:58.179Z,26.5
2018-11-12T05:06:48.029Z,26.4
2018-11-12T05:07:40.610Z,26.3
2018-11-12T05:08:27.286Z,26.2
2018-11-12T05:09:17.939Z,26.1
2018-11-12T05:10:07.496Z,25.8
2018-11-12T05:10:57.681Z,25.6
2018-11-12T05:11:48.621Z,25.8
2018-11-12T05:12:39.166Z,26.4
2018-11-12T05:13:28.459Z,26.8
2018-11-12T05:14:18.249Z,27.1
2018-11-12T05:15:08.124Z,27.5
2018-11-12T05:16:50.032Z,28.1
2018-11-12T05:17:37.965Z,28.4
2018-11-12T05:18:28.598Z,28.8
2018-11-12T05:19:18.548Z,29
2018-11-12T05:20:09.809Z,29.2
2018-11-12T05:20:58.878Z,29.4
2018-11-12T05:21:50.130Z,29.6
2018-11-12T05:22:38.465Z,29.8
2018-11-12T05:23:28.778Z,29.9
2018-11-12T05:24:19.983Z,30.1
2018-11-12T05:25:09.435Z,30.2
2018-11-12T05:25:59.810Z,30.4
2018-11-12T05:26:48.826Z,30.5
2018-11-12T05:27:39.517Z,30.6
2018-11-12T05:28:30.377Z,30.7
2018-11-12T05:29:20.063Z,30.8
2018-11-12T05:30:10.095Z,30.9
2018-11-12T05:30:59.043Z,31
2018-11-12T05:31:48.980Z,31.1
2018-11-12T05:32:39.469Z,31.1
2018-11-12T05:33:29.027Z,31.3
2018-11-12T05:34:19.419Z,31.3
2018-11-12T05:35:10.031Z,31.3
2018-11-12T05:36:00.144Z,31.1
2018-11-12T05:36:49.886Z,31
2018-11-12T05:37:40.441Z,30.9
2018-11-12T05:38:32.217Z,30.8
2018-11-12T05:39:20.321Z,30.6
2018-11-12T05:40:10.607Z,30.4
2018-11-12T05:41:00.484Z,30.3
2018-11-12T05:41:51.210Z,30.2
2018-11-12T05:42:40.226Z,30.1
2018-11-12T05:43:30.899Z,29.9
2018-11-12T05:44:20.349Z,29.8
2018-11-12T05:45:12.521Z,28.3
2018-11-12T05:46:00.727Z,27.5
2018-11-12T05:46:50.246Z,27.1
2018-11-12T05:47:40.017Z,26.9
2018-11-12T05:48:31.478Z,26.7
2018-11-12T05:49:21.027Z,26.6
2018-11-12T05:50:11.929Z,26.4
2018-11-12T05:51:01.717Z,26.3
2018-11-12T05:51:51.958Z,26.2
2018-11-12T05:52:41.035Z,26.1
2018-11-12T05:53:31.745Z,26
2018-11-12T05:54:21.881Z,25.7
2018-11-12T05:55:11.066Z,25.6
2018-11-12T05:56:02.598Z,25.9
2018-11-12T05:56:51.488Z,26.4
2018-11-12T05:57:41.281Z,26.8
2018-11-12T05:58:31.237Z,27.2
2018-11-12T05:59:21.723Z,27.5
2018-11-12T06:00:11.250Z,27.9
2018-11-12T06:01:01.002Z,28.2
2018-11-12T06:01:51.927Z,28.5
2018-11-12T06:02:40.916Z,28.8
2018-11-12T06:03:31.998Z,29
2018-11-12T06:04:21.601Z,29.2
2018-11-12T06:05:12.295Z,29.4
2018-11-12T06:06:02.736Z,29.6
2018-11-12T06:06:51.822Z,29.7
2018-11-12T06:07:41.606Z,29.9
2018-11-12T06:08:33.005Z,30
2018-11-12T06:09:22.058Z,30.1
2018-11-12T06:10:11.655Z,30.3
2018-11-12T06:11:02.933Z,30.4
2018-11-12T06:11:52.670Z,30.4
2018-11-12T06:12:42.600Z,30.6
2018-11-12T06:13:32.468Z,30.6
2018-11-12T06:14:23.910Z,30.7
2018-11-12T06:15:12.048Z,30.8
2018-11-12T06:16:02.860Z,30.9
2018-11-12T06:16:52.478Z,30.9
2018-11-12T06:17:43.317Z,31
2018-11-12T06:18:32.437Z,31.1
2018-11-12T06:19:22.005Z,31.1
2018-11-12T06:20:13.176Z,31.2
2018-11-12T06:21:02.669Z,31.3
2018-11-12T06:21:53.792Z,31.3
2018-11-12T06:22:43.011Z,31.1
2018-11-12T06:23:32.555Z,31
2018-11-12T06:24:23.452Z,30.9
2018-11-12T06:25:13.314Z,30.8
2018-11-12T06:26:04.254Z,30.6
2018-11-12T06:26:54.174Z,30.5
2018-11-12T06:27:44.416Z,30.4
2018-11-12T06:28:34.541Z,30.2
2018-11-12T06:29:23.804Z,30.1
2018-11-12T06:30:13.705Z,29.9
2018-11-12T06:31:04.209Z,29.8
2018-11-12T06:31:54.078Z,28.4
2018-11-12T06:32:43.646Z,27.6
2018-11-12T06:33:33.519Z,27.2
2018-11-12T06:34:24.321Z,26.9
2018-11-12T06:35:13.326Z,26.8
2018-11-12T06:36:04.801Z,26.6
2018-11-12T06:36:56.857Z,26.5
2018-11-12T06:37:44.388Z,26.4
2018-11-12T06:38:34.594Z,26.3
2018-11-12T06:39:24.205Z,26.2
2018-11-12T06:40:14.926Z,26.1
2018-11-12T06:41:04.867Z,25.9
2018-11-12T06:41:55.008Z,25.6
2018-11-12T06:42:46.280Z,25.8
2018-11-12T06:43:35.496Z,26.3
2018-11-12T06:44:24.871Z,26.8
2018-11-12T06:45:15.099Z,27.1
2018-11-12T06:46:05.467Z,27.6
2018-11-12T06:47:44.591Z,28.2
2018-11-12T06:48:34.223Z,28.4
2018-11-12T06:49:27.138Z,28.3
2018-11-12T06:50:13.946Z,28.3
2018-11-12T06:51:04.233Z,28.2
2018-11-12T06:51:55.375Z,28.1
2018-11-12T06:52:44.766Z,27.9
2018-11-12T06:53:37.016Z,27.9
2018-11-12T06:54:24.830Z,27.8
2018-11-12T06:55:16.010Z,27.7
2018-11-12T06:56:05.886Z,27.6
2018-11-12T06:56:55.750Z,27.4
2018-11-12T06:57:46.122Z,26.6
2018-11-12T06:58:35.312Z,26.1
2018-11-12T06:59:27.164Z,25.8
2018-11-12T07:00:16.307Z,25.5
2018-11-12T07:01:06.454Z,25.4
2018-11-12T07:01:56.709Z,25.3
2018-11-12T07:02:45.692Z,25.1
2018-11-12T07:03:35.119Z,25.1
2018-11-12T07:04:26.291Z,24.9
2018-11-12T07:05:15.688Z,24.9
2018-11-12T07:06:05.814Z,24.8
2018-11-12T07:06:57.169Z,24.7
2018-11-12T07:07:46.890Z,24.6
2018-11-12T07:08:36.067Z,24.4
2018-11-12T07:09:26.690Z,24.3
2018-11-12T07:10:15.950Z,24.1
2018-11-12T07:11:07.035Z,24
2018-11-12T07:11:57.965Z,23.9
2018-11-12T07:12:46.535Z,23.9
2018-11-12T07:13:37.236Z,23.8
2018-11-12T07:14:25.825Z,23.7
2018-11-12T07:15:16.642Z,23.6
2018-11-12T07:16:07.377Z,23.5
2018-11-12T07:16:57.532Z,23.5
2018-11-12T07:17:46.128Z,23.4
2018-11-12T07:18:36.597Z,23.3
2018-11-12T07:19:26.798Z,23.3
2018-11-12T07:20:17.340Z,23.2
2018-11-12T07:21:07.788Z,23.1
2018-11-12T07:21:56.840Z,23.1
2018-11-12T07:22:47.785Z,23
2018-11-12T07:23:38.997Z,22.9
2018-11-12T07:24:27.021Z,22.9
2018-11-12T07:25:18.812Z,22.8
2018-11-12T07:26:07.620Z,22.8
2018-11-12T07:26:57.814Z,22.7
2018-11-12T07:27:47.907Z,22.6
2018-11-12T07:28:38.412Z,22.6
2018-11-12T07:29:27.842Z,22.5
2018-11-12T07:30:18.222Z,22.4
2018-11-12T07:31:08.609Z,22.4
2018-11-12T07:31:57.884Z,22.3
2018-11-12T07:32:48.369Z,22.3
2018-11-12T07:33:37.794Z,22.2
2018-11-12T07:34:28.404Z,22.1
2018-11-12T07:35:17.614Z,22.1
2018-11-12T07:36:07.891Z,22
2018-11-12T07:36:58.760Z,22
2018-11-12T07:37:48.580Z,21.9
2018-11-12T07:38:38.304Z,21.9
2018-11-12T07:39:28.856Z,21.8
2018-11-12T07:40:18.242Z,21.8
2018-11-12T07:41:09.129Z,21.7
2018-11-12T07:42:00.013Z,21.6
2018-11-12T07:42:48.256Z,21.6
2018-11-12T07:43:39.514Z,21.6
2018-11-12T07:44:27.299Z,21.5
2018-11-12T07:45:18.468Z,21.4
2018-11-12T07:46:09.076Z,21.4
2018-11-12T07:46:57.958Z,21.3
2018-11-12T07:47:49.205Z,21.3
2018-11-12T07:48:40.477Z,21.2
2018-11-12T07:49:29.408Z,21.2
2018-11-12T07:51:09.817Z,21.1
2018-11-12T07:51:59.396Z,21
2018-11-12T07:52:49.065Z,20.9
2018-11-12T07:53:40.525Z,20.9
2018-11-12T07:54:31.098Z,20.9
2018-11-12T07:55:18.731Z,20.8
2018-11-12T07:56:10.596Z,20.8
2018-11-12T07:56:59.048Z,20.8
2018-11-12T07:57:50.348Z,20.7
2018-11-12T07:58:39.281Z,20.6
2018-11-12T07:59:30.609Z,20.6
2018-11-12T08:00:19.764Z,20.6
2018-11-12T08:01:10.890Z,20.5
2018-11-12T08:02:00.802Z,20.4
2018-11-12T08:02:49.501Z,20.4
2018-11-12T08:03:57.528Z,20.4
2018-11-12T08:04:31.439Z,20.3
2018-11-12T08:05:21.219Z,20.3
2018-11-12T08:06:10.102Z,20.2
2018-11-12T08:07:01.568Z,20.2
2018-11-12T08:07:50.887Z,20.1
2018-11-12T08:08:41.102Z,20.1
2018-11-12T08:09:32.255Z,20.1
2018-11-12T08:10:20.735Z,20
2018-11-12T08:11:09.706Z,19.9
2018-11-12T08:12:02.774Z,19.9
2018-11-12T08:12:50.446Z,19.9
2018-11-12T08:13:39.757Z,19.8
2018-11-12T08:14:32.833Z,19.8
2018-11-12T08:15:20.871Z,19.7
2018-11-12T08:16:09.962Z,19.6
2018-11-12T08:17:01.400Z,19.6
2018-11-12T08:17:53.759Z,19.6
2018-11-12T08:18:40.451Z,19.6
2018-11-12T08:19:29.316Z,19.5
2018-11-12T08:20:21.537Z,19.4
2018-11-12T08:21:11.109Z,19.4
2018-11-12T08:22:01.634Z,19.4
2018-11-12T08:22:52.611Z,19.4
2018-11-12T08:23:42.206Z,19.3
2018-11-12T08:24:33.398Z,19.3
2018-11-12T08:25:21.909Z,19.2
2018-11-12T08:26:12.557Z,19.2
2018-11-12T08:27:01.458Z,19.1
2018-11-12T08:27:51.613Z,19.1
2018-11-12T08:28:41.268Z,19.1
2018-11-12T08:29:32.113Z,19
2018-11-12T08:30:22.695Z,19
2018-11-12T08:31:12.569Z,18.9
2018-11-12T08:32:02.674Z,18.9
2018-11-12T08:32:52.193Z,18.9
2018-11-12T08:33:41.987Z,18.9
2018-11-12T08:34:32.738Z,18.8
2018-11-12T08:35:22.356Z,18.8
2018-11-12T08:36:13.885Z,18.8
2018-11-12T08:38:42.253Z,18.6
2018-11-12T08:39:34.796Z,18.6
2018-11-12T08:40:23.683Z,18.6
2018-11-12T08:41:13.925Z,18.6
2018-11-12T08:42:02.541Z,18.5
2018-11-12T08:42:54.569Z,18.4
2018-11-12T08:43:43.213Z,18.4
2018-11-12T08:44:31.640Z,18.4
2018-11-12T08:45:23.667Z,18.4
2018-11-12T08:46:14.621Z,18.4
2018-11-12T08:47:02.728Z,18.3
2018-11-12T08:47:52.532Z,18.3
2018-11-12T08:48:43.195Z,18.3
2018-11-12T08:49:37.596Z,18.3
2018-11-12T08:50:23.188Z,18.2
2018-11-12T08:51:14.428Z,18.1
2018-11-12T08:52:03.659Z,18.1
2018-11-12T09:08:47.206Z,17.6
2018-11-12T09:09:37.206Z,17.6
2018-11-12T09:10:27.479Z,17.5
2018-11-12T09:11:17.111Z,17.5
2018-11-12T09:12:07.341Z,17.5
2018-11-12T09:12:57.727Z,17.4
2018-11-12T09:13:51.103Z,17.4
2018-11-12T09:14:38.271Z,17.4
2018-11-12T09:15:27.198Z,17.4
2018-11-12T09:16:17.703Z,17.4
2018-11-12T09:17:06.916Z,17.3
2018-11-12T09:17:57.680Z,17.3
2018-11-12T09:18:47.528Z,17.3
2018-11-12T09:19:38.521Z,17.3
2018-11-12T09:20:28.700Z,17.2
2018-11-12T09:21:16.888Z,17.2
2018-11-12T09:22:07.573Z,17.2
2018-11-12T09:22:58.980Z,17.1
2018-11-12T09:23:48.296Z,17.2
2018-11-12T09:24:38.395Z,17.1
2018-11-12T09:25:28.631Z,17.1
2018-11-12T09:26:19.060Z,17.1
2018-11-12T09:30:28.978Z,16.9
2018-11-12T09:31:32.184Z,16.9
2018-11-12T09:32:08.878Z,16.9
2018-11-12T09:33:00.094Z,16.9
2018-11-12T09:33:48.990Z,16.9
2018-11-12T09:34:40.197Z,16.9
2018-11-12T09:35:29.890Z,16.8
2018-11-12T09:36:19.402Z,16.8
2018-11-12T09:37:09.265Z,16.8
2018-11-12T09:38:00.381Z,16.8
2018-11-12T09:38:49.636Z,16.8
2018-11-12T09:39:40.074Z,16.8
2018-11-12T09:40:30.223Z,16.7
2018-11-12T09:41:19.060Z,16.7
2018-11-12T09:42:10.566Z,16.7
2018-11-12T09:43:00.528Z,16.6
2018-11-12T09:43:49.517Z,16.7
2018-11-12T09:44:40.511Z,16.6
2018-11-12T09:45:30.074Z,16.6
2018-11-12T09:46:21.184Z,16.6
2018-11-12T09:47:09.166Z,16.6
2018-11-12T09:48:02.675Z,16.6
2018-11-12T09:48:51.860Z,16.6
2018-11-12T09:49:41.101Z,16.6
2018-11-12T09:50:30.320Z,16.5
2018-11-12T09:51:20.193Z,16.5
2018-11-12T09:52:10.046Z,16.5
2018-11-12T09:53:00.313Z,16.4
2018-11-12T09:53:53.546Z,16.4
2018-11-12T09:54:45.089Z,16.4
2018-11-12T09:55:30.521Z,16.4
2018-11-12T09:56:22.071Z,16.4
2018-11-12T09:57:11.951Z,16.4
2018-11-12T09:58:01.501Z,16.4
2018-11-12T09:58:50.847Z,16.3
2018-11-12T09:59:40.952Z,16.3
2018-11-12T10:00:36.362Z,16.3
2018-11-12T10:01:27.953Z,16.3
2018-11-12T10:02:24.656Z,16.3
2018-11-12T10:03:18.859Z,16.3
2018-11-12T10:04:09.018Z,16.3
2018-11-12T10:05:00.798Z,16.3
2018-11-12T10:05:43.042Z,16.3
2018-11-12T10:06:52.480Z,16.3
2018-11-12T10:07:44.119Z,16.2
2018-11-12T10:08:20.696Z,16.2
2018-11-12T10:09:07.372Z,16.2
2018-11-12T10:10:28.223Z,16.2
2018-11-12T10:11:25.315Z,16.2
2018-11-12T10:12:20.236Z,16.1
2018-11-12T10:13:27.083Z,16.1
2018-11-12T10:14:27.631Z,16.1
2018-11-12T10:15:13.399Z,16.1
2018-11-12T10:16:22.112Z,16.1
2018-11-12T10:17:38.358Z,16.1
2018-11-12T10:18:16.001Z,16.1
2018-11-12T10:18:35.112Z,16.1
2018-11-12T10:19:25.206Z,16.1
2018-11-12T10:20:16.211Z,16.1
2018-11-12T10:21:04.645Z,16
2018-11-12T10:21:55.894Z,16
2018-11-12T10:22:45.053Z,16
2018-11-12T10:23:36.234Z,16
2018-11-12T10:24:24.284Z,16
2018-11-12T10:25:15.531Z,15.9
2018-11-12T10:26:04.871Z,15.9
2018-11-12T10:26:54.739Z,15.9
2018-11-12T10:27:45.134Z,15.9
2018-11-12T10:28:35.919Z,15.9
2018-11-12T10:29:25.667Z,15.9
2018-11-12T10:30:15.725Z,15.9
2018-11-12T10:31:05.881Z,15.9
2018-11-12T10:31:55.779Z,15.9
2018-11-12T10:32:46.121Z,15.9
2018-11-12T10:33:37.096Z,15.9
2018-11-12T10:34:25.627Z,15.9
2018-11-12T10:35:15.444Z,15.9
2018-11-12T10:36:05.676Z,15.9
2018-11-12T10:36:56.286Z,15.8
2018-11-12T10:37:46.076Z,15.9
2018-11-12T10:38:35.768Z,15.8
2018-11-12T10:39:25.561Z,15.8
2018-11-12T10:40:16.703Z,15.8
2018-11-12T10:41:07.089Z,15.8
2018-11-12T10:41:57.239Z,15.8
2018-11-12T10:42:49.066Z,15.8
2018-11-12T10:43:37.221Z,15.8
2018-11-12T10:44:26.371Z,15.8
2018-11-12T10:45:16.259Z,15.8
2018-11-12T10:46:07.068Z,15.8
2018-11-12T10:46:56.868Z,15.8
2018-11-12T10:47:47.615Z,15.8
2018-11-12T10:48:37.691Z,15.8
2018-11-12T10:49:27.832Z,15.8
2018-11-12T10:50:17.096Z,15.8
2018-11-12T10:51:13.489Z,15.8
2018-11-12T10:51:58.260Z,15.7
2018-11-12T10:52:47.500Z,15.7
2018-11-12T10:53:38.893Z,15.7
2018-11-12T10:54:28.413Z,15.7
2018-11-12T10:55:22.320Z,15.7
2018-11-12T10:56:12.996Z,15.7
2018-11-12T10:56:58.412Z,15.7
2018-11-12T10:57:48.136Z,15.7
2018-11-12T10:58:40.226Z,15.7
2018-11-12T10:59:28.318Z,15.7
2018-11-12T11:00:19.637Z,15.7
2018-11-12T11:01:07.543Z,15.7
2018-11-12T11:01:57.997Z,15.6
2018-11-12T11:02:47.745Z,15.6
2018-11-12T11:03:38.387Z,15.6
2018-11-12T11:04:29.270Z,15.6
2018-11-12T11:05:18.120Z,15.6
2018-11-12T11:06:06.904Z,15.6
2018-11-12T11:06:59.389Z,15.6
2018-11-12T11:07:48.405Z,15.6
2018-11-12T11:08:38.963Z,15.6
2018-11-12T11:09:29.239Z,15.6
2018-11-12T11:10:18.124Z,15.6
2018-11-12T11:11:09.174Z,15.6
2018-11-12T11:11:58.761Z,15.6
2018-11-12T11:12:49.308Z,15.6
2018-11-12T11:13:38.909Z,15.6
2018-11-12T11:14:29.622Z,15.6
2018-11-12T11:15:20.279Z,15.6
2018-11-12T11:16:08.290Z,15.6
2018-11-12T11:16:59.795Z,15.6
2018-11-12T11:17:49.146Z,15.6
2018-11-12T11:18:39.936Z,15.6
2018-11-12T11:19:30.303Z,15.6
2018-11-12T11:20:19.198Z,15.6
2018-11-12T11:21:09.733Z,15.6
2018-11-12T11:22:00.575Z,15.6
2018-11-12T11:22:49.233Z,15.5
2018-11-12T11:23:40.564Z,15.5
2018-11-12T11:24:30.851Z,15.5
2018-11-12T11:25:19.175Z,15.6
2018-11-12T11:26:10.403Z,15.5
2018-11-12T11:27:00.241Z,15.5
2018-11-12T11:27:49.023Z,15.5
2018-11-12T11:28:41.193Z,15.5
2018-11-12T11:29:30.656Z,15.5
2018-11-12T11:30:19.599Z,15.5
2018-11-12T11:31:10.896Z,15.5
2018-11-12T11:32:00.191Z,15.5
2018-11-12T11:32:50.838Z,15.5
2018-11-12T11:33:39.986Z,15.5
2018-11-12T11:34:29.762Z,15.5
2018-11-12T11:35:20.625Z,15.5
2018-11-12T11:36:10.480Z,15.5
2018-11-12T11:37:00.360Z,15.5
2018-11-12T11:37:50.716Z,15.5
2018-11-12T11:38:40.248Z,15.5
2018-11-12T11:39:29.567Z,15.5
2018-11-12T11:40:22.969Z,15.5
2018-11-12T11:41:11.262Z,15.4
2018-11-12T11:42:00.582Z,15.5
2018-11-12T11:42:50.363Z,15.4
2018-11-12T11:43:40.762Z,15.5
2018-11-12T11:44:30.004Z,15.4
2018-11-12T11:45:20.820Z,15.4
2018-11-12T11:46:10.604Z,15.5
2018-11-12T11:47:01.215Z,15.5
2018-11-12T11:47:52.353Z,15.4
2018-11-12T11:48:41.871Z,15.4
2018-11-12T11:49:30.972Z,15.5
2018-11-12T11:50:23.429Z,15.4
2018-11-12T11:51:11.519Z,15.4
2018-11-12T11:52:01.809Z,15.4
2018-11-12T11:52:52.132Z,15.4
2018-11-12T11:53:40.837Z,15.4
2018-11-12T11:54:31.611Z,15.4
2018-11-12T11:55:21.271Z,15.4
2018-11-12T11:56:11.846Z,15.4
2018-11-12T11:57:02.823Z,15.4
2018-11-12T11:57:53.487Z,15.4
2018-11-12T11:58:41.406Z,15.4
2018-11-12T11:59:31.814Z,15.4
2018-11-12T12:00:22.286Z,15.4
2018-11-12T12:01:14.368Z,15.4
2018-11-12T12:02:02.426Z,15.4
2018-11-12T12:02:53.175Z,15.4
2018-11-12T12:03:41.533Z,15.4
2018-11-12T12:04:32.644Z,15.4
2018-11-12T12:05:22.510Z,15.4
2018-11-12T12:06:12.831Z,15.4
2018-11-12T12:07:02.616Z,15.4
2018-11-12T12:07:53.015Z,15.4
2018-11-12T12:08:43.390Z,15.4
2018-11-12T12:09:33.436Z,15.4
2018-11-12T12:10:23.708Z,15.4
2018-11-12T12:11:13.979Z,15.4
2018-11-12T12:12:03.360Z,15.4
2018-11-12T12:12:54.672Z,15.4
2018-11-12T12:13:42.555Z,15.4
2018-11-12T12:14:33.925Z,15.4
2018-11-12T12:15:23.970Z,15.4
2018-11-12T12:16:13.652Z,15.4
2018-11-12T12:17:03.438Z,15.4